Time;durP1;ratioP1;P1;durP2;ratioP2;P2;SDS_P1;SDS_P2;PMS_P1;PMS_P2;Temp;Humidity;BMP_temperature;BMP_pressure;BME280_temperature;BME280_humidity;BME280_pressure;Samples;Min_cycle;Max_cycle;Signal;HPM_P1;HPM_P2
2023/04/23 00:01:48;;;;;;;11.75;4.88;;;;;;;7.66;89.30;94598.19;5138158;27;20201;-71
2023/04/23 00:04:17;;;;;;;10.80;4.43;;;;;;;7.63;89.28;94593.44;5138283;27;20197;-71
2023/04/23 00:06:46;;;;;;;11.30;4.88;;;;;;;7.61;89.29;94590.25;5139164;27;20232;-71
2023/04/23 00:09:15;;;;;;;9.40;3.97;;;;;;;7.51;89.57;94595.13;5138335;27;20208;-71
2023/04/23 00:11:42;;;;;;;6.68;4.10;;;;;;;7.55;89.40;94591.50;5143659;27;20301;-72
2023/04/23 00:14:10;;;;;;;7.20;4.50;;;;;;;7.56;88.90;94586.88;5145249;27;20192;-72
2023/04/23 00:16:37;;;;;;;10.27;4.22;;;;;;;7.57;88.96;94588.47;5140216;27;20215;-72
2023/04/23 00:19:04;;;;;;;7.35;3.15;;;;;;;7.50;88.97;94588.94;5137712;27;20200;-73
2023/04/23 00:21:31;;;;;;;7.32;3.17;;;;;;;7.61;88.62;94601.03;5142667;27;20208;-72
2023/04/23 00:23:59;;;;;;;10.20;3.92;;;;;;;7.60;87.89;94599.44;5145187;27;20204;-72
2023/04/23 00:26:26;;;;;;;6.60;3.83;;;;;;;7.69;87.54;94597.59;5140501;27;20251;-71
2023/04/23 00:28:53;;;;;;;5.57;3.10;;;;;;;7.61;87.28;94595.66;5138207;27;20288;-72
2023/04/23 00:31:21;;;;;;;5.53;3.42;;;;;;;7.67;86.55;94597.09;5141487;27;20201;-71
2023/04/23 00:33:48;;;;;;;6.30;3.45;;;;;;;7.68;86.79;94596.00;5130560;27;20201;-71
2023/04/23 00:36:14;;;;;;;6.65;3.55;;;;;;;7.28;88.45;94592.44;5141738;27;20207;-72
2023/04/23 00:38:41;;;;;;;5.88;3.40;;;;;;;7.23;89.21;94605.25;5137658;27;20220;-72
2023/04/23 00:41:10;;;;;;;6.35;3.75;;;;;;;7.30;89.63;94586.75;5141409;27;20192;-73
2023/04/23 00:43:37;;;;;;;6.53;3.28;;;;;;;7.31;89.77;94585.66;5144828;27;20220;-73
2023/04/23 00:46:04;;;;;;;4.82;3.13;;;;;;;7.33;89.76;94592.31;5141690;27;20672;-72
2023/04/23 00:48:33;;;;;;;4.80;3.13;;;;;;;7.37;89.82;94587.13;5132866;27;20205;-72
2023/04/23 00:51:04;;;;;;;6.25;3.35;;;;;;;7.35;89.15;94592.03;5130903;27;20223;-72
2023/04/23 00:53:30;;;;;;;6.60;3.58;;;;;;;7.37;88.96;94585.22;5148841;27;20303;-72
2023/04/23 00:55:58;;;;;;;6.75;3.40;;;;;;;7.30;88.55;94594.84;5139395;27;20619;-72
2023/04/23 00:58:26;;;;;;;6.10;2.95;;;;;;;7.22;88.54;94593.69;5139197;27;20201;-71
2023/04/23 01:00:53;;;;;;;5.38;3.38;;;;;;;7.30;88.81;94592.13;5130039;27;20579;-71
2023/04/23 01:03:21;;;;;;;5.53;3.22;;;;;;;7.21;88.75;94596.69;5144572;27;20201;-71
2023/04/23 01:05:48;;;;;;;7.97;3.63;;;;;;;6.94;88.52;94544.53;5143085;27;20334;-72
2023/04/23 01:08:17;;;;;;;5.30;3.22;;;;;;;7.21;87.82;94580.53;5137520;27;20237;-71
2023/04/23 01:10:44;;;;;;;6.43;3.08;;;;;;;7.27;87.59;94598.13;5137267;27;20197;-72
2023/04/23 01:13:12;;;;;;;6.47;3.42;;;;;;;7.28;87.63;94597.81;5144174;27;20201;-71
2023/04/23 01:15:41;;;;;;;5.47;3.15;;;;;;;7.27;87.63;94595.44;5143502;27;20196;-71
2023/04/23 01:18:09;;;;;;;7.65;3.58;;;;;;;7.24;87.49;94588.78;5143114;27;20796;-71
2023/04/23 01:20:38;;;;;;;6.90;3.35;;;;;;;7.22;87.74;94592.88;5144744;27;20257;-74
2023/04/23 01:23:06;;;;;;;4.45;2.58;;;;;;;7.14;87.39;94592.50;5142615;27;20300;-72
2023/04/23 01:25:34;;;;;;;3.90;2.50;;;;;;;7.06;87.60;94585.19;5143127;27;20272;-70
2023/04/23 01:28:01;;;;;;;4.47;2.72;;;;;;;7.10;87.63;94591.53;5129718;27;20204;-72
2023/04/23 01:30:29;;;;;;;7.25;3.05;;;;;;;7.12;88.01;94589.31;5131067;27;20640;-72
2023/04/23 01:32:57;;;;;;;3.75;2.88;;;;;;;7.00;87.74;94591.78;5129898;27;20743;-72
2023/04/23 01:35:24;;;;;;;5.57;2.80;;;;;;;6.93;88.30;94591.41;5143794;27;20215;-72
2023/04/23 01:37:53;;;;;;;8.23;3.15;;;;;;;7.00;88.16;94597.16;5138598;27;20228;-71
2023/04/23 01:40:21;;;;;;;3.90;3.10;;;;;;;6.87;88.96;94598.00;5133814;27;20208;-71
2023/04/23 01:42:49;;;;;;;6.57;3.15;;;;;;;6.84;89.68;94598.59;5129225;27;20199;-71
2023/04/23 01:45:18;;;;;;;4.65;3.15;;;;;;;6.85;89.72;94589.44;5142771;27;20209;-71
2023/04/23 01:47:45;;;;;;;4.38;3.08;;;;;;;6.89;89.75;94603.88;5140024;27;20232;-71
2023/04/23 01:50:12;;;;;;;6.95;3.22;;;;;;;6.92;89.61;94600.59;5132653;27;20226;-72
2023/04/23 01:52:40;;;;;;;6.05;3.33;;;;;;;6.88;89.10;94596.91;5129133;27;20664;-73
2023/04/23 01:55:07;;;;;;;5.90;3.17;;;;;;;6.86;89.24;94601.78;5143041;27;20675;-72
2023/04/23 01:57:36;;;;;;;5.03;2.90;;;;;;;6.87;89.41;94611.47;5138037;27;20201;-71
2023/04/23 02:00:07;;;;;;;6.07;3.97;;;;;;;6.85;89.88;94605.59;5129492;27;20201;-70
2023/04/23 02:02:34;;;;;;;3.53;2.72;;;;;;;6.83;90.05;94613.19;5141845;27;20234;-71
2023/04/23 02:05:03;;;;;;;5.25;2.90;;;;;;;6.71;90.17;94610.22;5135632;27;20208;-71
2023/04/23 02:07:31;;;;;;;4.47;2.97;;;;;;;6.63;90.98;94608.25;5136527;27;20225;-71
2023/04/23 02:09:58;;;;;;;9.65;3.60;;;;;;;6.62;91.07;94609.34;5142817;27;20204;-71
2023/04/23 02:12:25;;;;;;;5.85;3.30;;;;;;;6.58;91.22;94613.72;5142338;27;20228;-71
2023/04/23 02:14:53;;;;;;;6.35;3.15;;;;;;;6.68;91.52;94610.84;5143227;27;20208;-72
2023/04/23 02:17:21;;;;;;;6.80;3.50;;;;;;;6.68;91.66;94610.84;5143024;27;20198;-71
2023/04/23 02:19:48;;;;;;;5.95;2.72;;;;;;;6.68;91.60;94611.63;5129070;27;20300;-71
2023/04/23 02:22:16;;;;;;;5.78;3.28;;;;;;;6.69;91.34;94612.44;5143347;27;20204;-71
2023/04/23 02:24:43;;;;;;;7.32;3.35;;;;;;;6.73;91.39;94613.41;5136372;27;20211;-72
2023/04/23 02:27:10;;;;;;;11.77;3.20;;;;;;;6.66;91.18;94607.66;5135314;27;20271;-71
2023/04/23 02:29:37;;;;;;;5.95;3.13;;;;;;;6.73;90.84;94608.03;5141322;27;20197;-71
2023/04/23 02:32:06;;;;;;;4.55;3.17;;;;;;;6.56;91.77;94615.97;5142314;27;20204;-71
2023/04/23 02:34:33;;;;;;;8.32;3.25;;;;;;;6.34;93.61;94605.91;5136589;27;20673;-71
2023/04/23 02:37:00;;;;;;;6.60;3.80;;;;;;;6.15;94.27;94597.94;5135752;27;20379;-71
2023/04/23 02:39:27;;;;;;;5.85;3.25;;;;;;;6.15;95.25;94614.09;5140643;27;20827;-71
2023/04/23 02:41:54;;;;;;;4.68;3.22;;;;;;;6.11;96.13;94615.81;5142555;27;20204;-71
2023/04/23 02:44:20;;;;;;;11.38;6.80;;;;;;;6.12;96.37;94613.91;5128583;27;20221;-71
2023/04/23 02:46:47;;;;;;;7.57;3.70;;;;;;;6.10;95.75;94610.72;5142352;27;20223;-71
2023/04/23 02:49:16;;;;;;;4.82;3.25;;;;;;;6.09;95.92;94612.63;5128578;28;20757;-71
2023/04/23 02:51:42;;;;;;;6.95;3.97;;;;;;;6.18;95.86;94613.50;5128742;28;20200;-71
2023/04/23 02:54:10;;;;;;;9.70;6.57;;;;;;;6.36;94.98;94615.28;5128996;27;20493;-71
2023/04/23 02:56:36;;;;;;;15.70;4.35;;;;;;;6.37;93.88;94611.50;5144709;27;20703;-71
2023/04/23 02:59:03;;;;;;;6.93;4.30;;;;;;;6.51;93.25;94616.06;5132652;27;20215;-72
2023/04/23 03:01:30;;;;;;;6.47;3.60;;;;;;;6.41;92.52;94612.50;5136520;27;20256;-72
2023/04/23 03:03:57;;;;;;;9.18;3.95;;;;;;;6.40;91.98;94623.56;5142809;27;20200;-72
2023/04/23 03:06:25;;;;;;;6.53;3.60;;;;;;;6.35;91.88;94616.38;5132322;27;20205;-71
2023/04/23 03:08:52;;;;;;;7.55;3.28;;;;;;;6.23;91.83;94626.84;5144202;27;20192;-71
2023/04/23 03:11:20;;;;;;;7.82;4.07;;;;;;;6.27;92.27;94627.84;5139486;27;20571;-72
2023/04/23 03:13:46;;;;;;;4.88;3.58;;;;;;;6.36;92.19;94615.28;5141445;27;20899;-71
2023/04/23 03:16:13;;;;;;;5.93;3.72;;;;;;;6.37;92.28;94619.56;5146473;27;20275;-71
2023/04/23 03:18:40;;;;;;;4.63;3.13;;;;;;;6.30;92.06;94621.84;5144092;27;20203;-71
2023/04/23 03:21:07;;;;;;;5.55;3.75;;;;;;;6.04;93.03;94631.53;5139154;27;20196;-71
2023/04/23 03:23:35;;;;;;;4.63;3.05;;;;;;;6.12;93.31;94628.16;5140616;27;20197;-70
2023/04/23 03:26:03;;;;;;;5.18;3.47;;;;;;;6.18;92.96;94624.25;5132502;27;20281;-72
2023/04/23 03:28:30;;;;;;;8.52;3.22;;;;;;;6.11;93.43;94634.63;5144228;27;20339;-71
2023/04/23 03:30:57;;;;;;;6.13;3.60;;;;;;;6.04;93.80;94624.25;5133066;27;20205;-71
2023/04/23 03:33:24;;;;;;;7.13;4.03;;;;;;;6.16;94.45;94631.03;5132134;27;20208;-72
2023/04/23 03:35:51;;;;;;;20.80;9.57;;;;;;;6.11;94.68;94639.22;5145930;27;20197;-71
2023/04/23 03:38:18;;;;;;;43.25;14.20;;;;;;;5.99;94.72;94618.19;5145073;27;20766;-71
2023/04/23 03:40:46;;;;;;;52.25;15.30;;;;;;;6.17;94.47;94617.28;5132638;27;20273;-71
2023/04/23 03:43:13;;;;;;;26.88;10.63;;;;;;;6.15;94.58;94595.25;5131968;27;20201;-72
2023/04/23 03:45:40;;;;;;;17.55;7.70;;;;;;;6.57;94.56;94637.16;5138933;27;20196;-72
2023/04/23 03:48:07;;;;;;;23.17;9.23;;;;;;;6.73;93.69;94634.94;5138670;27;20725;-72
2023/04/23 03:50:37;;;;;;;21.27;8.15;;;;;;;6.83;93.12;94623.97;5144803;27;20724;-71
2023/04/23 03:53:04;;;;;;;8.07;4.93;;;;;;;7.02;92.54;94629.97;5145821;27;20264;-71
2023/04/23 03:55:31;;;;;;;11.07;5.50;;;;;;;7.12;91.60;94621.63;5139815;27;20287;-71
2023/04/23 03:58:00;;;;;;;8.70;4.65;;;;;;;7.39;90.61;94636.09;5119679;27;20200;-71
2023/04/23 04:00:27;;;;;;;7.75;4.80;;;;;;;7.46;89.16;94641.84;5143812;27;20237;-70
2023/04/23 04:02:54;;;;;;;9.02;3.85;;;;;;;7.77;88.63;94642.69;5145608;27;20204;-71
2023/04/23 04:05:21;;;;;;;6.30;4.05;;;;;;;8.34;86.49;94639.28;5140576;27;20204;-71
2023/04/23 04:07:48;;;;;;;7.28;4.00;;;;;;;8.34;83.70;94639.28;5148734;27;20686;-71
2023/04/23 04:10:15;;;;;;;8.10;4.25;;;;;;;8.58;82.24;94637.00;5141089;27;20200;-72
2023/04/23 04:12:43;;;;;;;5.85;3.78;;;;;;;9.47;80.23;94639.09;5137952;27;20225;-72
2023/04/23 04:15:12;;;;;;;6.90;3.53;;;;;;;9.93;77.45;94634.88;5141926;27;20208;-72
2023/04/23 04:17:39;;;;;;;11.15;4.45;;;;;;;10.28;75.33;94640.97;5145425;27;20257;-71
2023/04/23 04:20:08;;;;;;;6.75;3.67;;;;;;;10.04;75.12;94646.94;5141559;27;20678;-71
2023/04/23 04:22:35;;;;;;;6.30;4.07;;;;;;;10.06;75.96;94638.50;5138445;27;20224;-71
2023/04/23 04:25:02;;;;;;;5.93;4.13;;;;;;;10.33;74.25;94632.69;5140586;27;20201;-71
2023/04/23 04:27:32;;;;;;;11.57;5.18;;;;;;;10.88;72.50;94626.31;5145254;27;20370;-71
2023/04/23 04:30:00;;;;;;;9.68;4.57;;;;;;;11.76;69.98;94631.50;5143004;27;20185;-71
2023/04/23 04:32:28;;;;;;;7.00;4.13;;;;;;;11.97;68.15;94645.84;5132667;27;20201;-72
2023/04/23 04:34:55;;;;;;;12.90;4.13;;;;;;;12.88;65.98;94634.78;5112581;27;20238;-72
2023/04/23 04:37:22;;;;;;;7.35;4.20;;;;;;;13.44;62.48;94636.53;5144933;27;20232;-72
2023/04/23 04:39:48;;;;;;;8.68;4.38;;;;;;;13.10;63.14;94642.50;5143246;27;20200;-72
2023/04/23 04:42:15;;;;;;;8.25;4.75;;;;;;;12.21;65.75;94650.50;5137421;27;20200;-72
2023/04/23 04:44:43;;;;;;;8.57;4.07;;;;;;;12.45;65.79;94639.66;5138107;27;20209;-72
2023/04/23 04:47:12;;;;;;;7.15;4.15;;;;;;;12.57;64.99;94644.34;5144401;27;20322;-70
2023/04/23 04:49:40;;;;;;;7.97;4.10;;;;;;;12.43;65.27;94646.59;5144140;27;20213;-71
2023/04/23 04:52:07;;;;;;;6.57;3.80;;;;;;;13.09;64.38;94630.81;5144301;27;20262;-71
2023/04/23 04:54:34;;;;;;;4.88;3.70;;;;;;;13.81;61.35;94644.53;5144408;27;20204;-70
2023/04/23 04:57:01;;;;;;;4.70;3.55;;;;;;;14.70;58.71;94642.22;5144583;27;20212;-72
2023/04/23 04:59:28;;;;;;;7.38;4.32;;;;;;;14.10;60.46;94646.88;5144082;27;20227;-71
2023/04/23 05:01:55;;;;;;;6.95;4.60;;;;;;;15.00;59.87;94639.00;5137756;27;20269;-73
2023/04/23 05:04:21;;;;;;;9.48;5.57;;;;;;;15.07;58.94;94645.41;5136695;27;20205;-72
2023/04/23 05:06:50;;;;;;;7.72;4.90;;;;;;;15.14;57.92;94639.34;5130056;27;20245;-72
2023/04/23 05:09:17;;;;;;;7.93;6.10;;;;;;;15.24;57.67;94644.22;5140780;27;20216;-71
2023/04/23 05:11:44;;;;;;;6.57;4.90;;;;;;;16.26;55.13;94637.34;5137465;27;20224;-72
2023/04/23 05:14:11;;;;;;;8.52;4.82;;;;;;;16.81;53.69;94632.44;5135581;27;20204;-71
2023/04/23 05:16:37;;;;;;;6.65;4.93;;;;;;;16.03;54.71;94641.97;5129349;27;20215;-72
2023/04/23 05:19:05;;;;;;;7.50;5.10;;;;;;;16.59;54.04;94635.94;5144217;27;20233;-71
2023/04/23 05:21:32;;;;;;;5.72;4.97;;;;;;;16.83;53.60;94638.34;5138469;27;20201;-71
2023/04/23 05:24:00;;;;;;;7.07;5.03;;;;;;;15.68;55.92;94639.34;5136548;27;20200;-71
2023/04/23 05:26:26;;;;;;;7.65;5.15;;;;;;;15.19;57.50;94636.31;5141127;27;20205;-71
2023/04/23 05:28:54;;;;;;;6.32;5.40;;;;;;;14.93;58.30;94640.41;5143209;27;20228;-71
2023/04/23 05:31:21;;;;;;;6.50;5.43;;;;;;;15.04;58.31;94645.31;5139098;27;20230;-71
2023/04/23 05:33:47;;;;;;;6.25;4.97;;;;;;;15.39;58.03;94640.66;5136332;27;20204;-71
2023/04/23 05:36:14;;;;;;;6.93;5.53;;;;;;;15.83;56.39;94643.16;5140423;27;20197;-70
2023/04/23 05:38:41;;;;;;;6.22;5.32;;;;;;;15.63;56.81;94645.88;5143163;27;20280;-69
2023/04/23 05:41:09;;;;;;;6.35;5.10;;;;;;;15.68;57.03;94641.28;5139043;27;20200;-71
2023/04/23 05:43:36;;;;;;;10.15;5.53;;;;;;;15.02;58.60;94642.19;5133232;27;20204;-71
2023/04/23 05:46:05;;;;;;;11.63;5.32;;;;;;;15.37;58.14;94648.41;5129184;27;20201;-71
2023/04/23 05:48:32;;;;;;;7.15;4.95;;;;;;;14.52;59.67;94654.63;5143031;27;20260;-72
2023/04/23 05:50:59;;;;;;;6.38;4.97;;;;;;;14.97;59.52;94645.16;5121784;27;20214;-72
2023/04/23 05:53:26;;;;;;;9.98;5.30;;;;;;;16.09;55.72;94640.56;5131416;27;20683;-73
2023/04/23 05:55:53;;;;;;;12.45;5.80;;;;;;;16.60;54.57;94649.28;5139739;27;20203;-73
2023/04/23 05:58:21;;;;;;;8.60;4.97;;;;;;;17.90;51.62;94648.88;5136333;27;20201;-72
2023/04/23 06:00:48;;;;;;;9.50;5.05;;;;;;;16.98;52.61;94653.03;5129093;27;20212;-73
2023/04/23 06:03:15;;;;;;;8.00;5.22;;;;;;;17.43;52.18;94649.41;5130682;27;20667;-73
2023/04/23 06:05:42;;;;;;;8.60;5.40;;;;;;;17.95;50.81;94645.78;5129096;27;20196;-73
2023/04/23 06:08:09;;;;;;;8.60;5.18;;;;;;;18.52;49.38;94653.84;5142326;27;20288;-72
2023/04/23 06:10:36;;;;;;;7.68;5.38;;;;;;;19.49;47.00;94632.28;5141146;27;20196;-73
2023/04/23 06:13:03;;;;;;;8.20;5.50;;;;;;;19.44;46.63;94638.09;5135496;27;20231;-71
2023/04/23 06:15:31;;;;;;;7.88;5.65;;;;;;;18.23;49.53;94637.09;5137052;27;20209;-72
2023/04/23 06:17:57;;;;;;;7.20;5.57;;;;;;;17.90;50.55;94642.59;5143294;27;20205;-72
2023/04/23 06:20:25;;;;;;;9.27;5.80;;;;;;;17.91;50.21;94641.41;5141243;27;20674;-72
2023/04/23 06:22:52;;;;;;;10.43;5.47;;;;;;;17.97;50.31;94648.16;5136055;27;20197;-71
2023/04/23 06:25:18;;;;;;;10.23;5.57;;;;;;;18.76;48.57;94645.06;5136960;27;20193;-71
2023/04/23 06:27:46;;;;;;;11.82;5.95;;;;;;;19.74;46.37;94626.91;5142885;27;20233;-73
2023/04/23 06:30:13;;;;;;;8.38;5.25;;;;;;;20.21;44.91;94623.16;5141640;27;20204;-76
2023/04/23 06:32:41;;;;;;;8.02;5.20;;;;;;;18.46;48.34;94634.97;5130837;27;20629;-75
2023/04/23 06:35:09;;;;;;;10.38;5.63;;;;;;;18.14;49.73;94642.09;5141847;27;20193;-72
2023/04/23 06:37:36;;;;;;;8.43;5.22;;;;;;;17.14;52.41;94644.66;5134294;27;20282;-74
2023/04/23 06:40:03;;;;;;;8.65;5.55;;;;;;;17.03;53.05;94634.34;5142754;27;20672;-73
2023/04/23 06:42:29;;;;;;;6.93;5.03;;;;;;;18.13;50.46;94643.25;5129362;27;20572;-73
2023/04/23 06:44:58;;;;;;;8.02;5.40;;;;;;;19.05;47.64;94624.91;5143104;27;20200;-73
2023/04/23 06:47:25;;;;;;;11.30;5.65;;;;;;;19.43;47.10;94617.28;5137151;27;20286;-72
2023/04/23 06:49:53;;;;;;;6.57;5.35;;;;;;;20.79;44.37;94627.59;5136865;27;20208;-72
2023/04/23 06:52:20;;;;;;;6.78;5.30;;;;;;;20.33;44.88;94598.03;5138424;27;20193;-75
2023/04/23 06:54:47;;;;;;;6.45;5.15;;;;;;;20.41;45.33;94620.88;5129762;27;20270;-73
2023/04/23 06:57:13;;;;;;;7.45;5.03;;;;;;;19.72;45.49;94623.75;5134679;27;20196;-74
2023/04/23 06:59:40;;;;;;;8.63;5.55;;;;;;;19.02;48.05;94636.66;5130775;27;20201;-72
2023/04/23 07:02:07;;;;;;;8.10;5.68;;;;;;;20.24;45.38;94616.88;5128886;28;20261;-74
2023/04/23 07:04:34;;;;;;;9.50;5.40;;;;;;;20.45;45.13;94616.97;5135771;27;20605;-73
2023/04/23 07:07:02;;;;;;;8.23;5.95;;;;;;;20.29;44.79;94618.47;5137580;27;20197;-73
2023/04/23 07:09:29;;;;;;;8.77;5.65;;;;;;;19.55;46.78;94629.94;5140260;27;20227;-73
2023/04/23 07:11:56;;;;;;;7.28;5.43;;;;;;;20.09;45.88;94631.78;5133468;27;20217;-73
2023/04/23 07:14:23;;;;;;;7.80;5.68;;;;;;;19.80;45.71;94626.19;5134677;27;20244;-73
2023/04/23 07:16:50;;;;;;;9.30;5.68;;;;;;;20.80;44.43;94627.22;5139861;27;20196;-72
2023/04/23 07:19:17;;;;;;;7.13;5.55;;;;;;;20.12;45.06;94622.72;5139574;27;20193;-73
2023/04/23 07:21:44;;;;;;;9.13;6.40;;;;;;;17.92;50.50;94643.00;5135681;27;20721;-73
2023/04/23 07:24:12;;;;;;;7.35;5.65;;;;;;;18.10;51.02;94635.78;5142215;27;20211;-73
2023/04/23 07:26:39;;;;;;;10.60;6.07;;;;;;;17.33;52.69;94641.84;5139016;27;20257;-72
2023/04/23 07:29:09;;;;;;;8.00;5.78;;;;;;;17.24;52.94;94636.59;5130901;27;20248;-74
2023/04/23 07:31:36;;;;;;;12.93;6.57;;;;;;;17.32;53.75;94645.72;5128011;28;20671;-74
2023/04/23 07:34:03;;;;;;;8.88;5.80;;;;;;;16.22;56.08;94635.72;5142072;27;20216;-74
2023/04/23 07:36:30;;;;;;;9.52;5.38;;;;;;;16.78;55.07;94629.66;5139540;27;20216;-74
2023/04/23 07:38:56;;;;;;;11.60;5.82;;;;;;;17.60;53.85;94629.69;5144129;27;20207;-73
2023/04/23 07:41:25;;;;;;;10.43;6.10;;;;;;;18.22;51.64;94627.28;5128564;27;20519;-74
2023/04/23 07:43:51;;;;;;;7.30;5.10;;;;;;;18.64;51.03;94632.44;5144272;27;20728;-73
2023/04/23 07:46:18;;;;;;;10.20;6.00;;;;;;;19.10;49.15;94626.53;5143949;27;20200;-73
2023/04/23 07:48:45;;;;;;;9.10;5.80;;;;;;;18.41;49.99;94629.84;5138225;27;20727;-73
2023/04/23 07:51:12;;;;;;;8.80;5.88;;;;;;;18.81;49.28;94593.38;5139353;27;20815;-75
2023/04/23 07:53:40;;;;;;;6.40;5.40;;;;;;;18.62;50.45;94628.47;5131515;27;20212;-75
2023/04/23 07:56:07;;;;;;;7.97;4.95;;;;;;;18.67;50.19;94628.13;5144650;27;20203;-75
2023/04/23 07:58:35;;;;;;;7.13;5.70;;;;;;;18.07;50.77;94631.03;5142429;27;20196;-73
2023/04/23 08:01:02;;;;;;;9.38;5.55;;;;;;;17.61;52.28;94634.00;5137767;27;20215;-75
2023/04/23 08:03:29;;;;;;;7.10;5.28;;;;;;;17.92;51.67;94618.31;5137940;27;20605;-75
2023/04/23 08:05:56;;;;;;;7.05;5.50;;;;;;;16.47;55.38;94641.59;5137902;27;20209;-72
2023/04/23 08:08:23;;;;;;;8.77;5.70;;;;;;;17.25;54.83;94629.19;5144653;27;20252;-74
2023/04/23 08:10:50;;;;;;;6.38;5.75;;;;;;;16.97;53.92;94629.56;5144496;27;20663;-75
2023/04/23 08:13:17;;;;;;;11.23;5.60;;;;;;;17.14;53.57;94628.25;5138433;27;20252;-74
2023/04/23 08:15:45;;;;;;;6.85;5.55;;;;;;;17.12;53.83;94631.34;5137555;27;20315;-74
2023/04/23 08:18:12;;;;;;;7.55;5.82;;;;;;;17.09;54.32;94626.59;5151865;27;20204;-74
2023/04/23 08:20:39;;;;;;;11.20;6.50;;;;;;;16.74;54.92;94626.06;5143572;27;20542;-72
2023/04/23 08:23:06;;;;;;;7.00;5.43;;;;;;;17.30;52.85;94626.13;5130776;27;20205;-73
2023/04/23 08:25:33;;;;;;;7.90;6.13;;;;;;;18.24;51.02;94624.97;5145829;27;20224;-72
2023/04/23 08:28:00;;;;;;;10.80;6.88;;;;;;;17.56;52.96;94620.63;5143198;27;20269;-73
2023/04/23 08:30:27;;;;;;;7.38;5.70;;;;;;;17.83;52.33;94609.63;5144952;27;20901;-72
2023/04/23 08:32:55;;;;;;;8.77;6.28;;;;;;;17.55;51.67;94602.59;5139619;27;20196;-73
2023/04/23 08:35:22;;;;;;;8.57;6.13;;;;;;;17.20;52.59;94610.34;5137412;27;20228;-72
2023/04/23 08:37:49;;;;;;;8.18;5.63;;;;;;;16.54;54.36;94619.84;5141881;27;20220;-73
2023/04/23 08:40:16;;;;;;;9.32;6.10;;;;;;;16.41;54.99;94616.50;5144463;27;20275;-72
2023/04/23 08:42:49;;;;;;;7.32;5.50;;;;;;;16.09;55.34;94602.28;5130951;27;20207;-74
2023/04/23 08:45:16;;;;;;;9.30;5.70;;;;;;;17.06;53.81;94605.47;5134401;27;20192;-73
2023/04/23 08:47:43;;;;;;;9.32;6.57;;;;;;;17.77;51.93;94604.47;5140642;27;20201;-73
2023/04/23 08:50:13;;;;;;;7.65;6.82;;;;;;;17.63;52.38;94604.28;5144028;27;20232;-74
2023/04/23 08:52:42;;;;;;;9.93;6.25;;;;;;;17.59;52.63;94605.41;5141282;27;20204;-74
2023/04/23 08:55:10;;;;;;;7.10;5.75;;;;;;;17.82;51.37;94586.91;5136234;27;20279;-76
2023/04/23 08:57:42;;;;;;;16.20;6.88;;;;;;;16.99;52.95;94594.41;5138528;27;20201;-74
2023/04/23 09:00:11;;;;;;;7.82;5.97;;;;;;;16.55;54.47;94585.88;5143545;27;20730;-74
2023/04/23 09:02:42;;;;;;;9.73;5.93;;;;;;;17.87;51.51;94585.78;5143268;27;20256;-75
2023/04/23 09:05:11;;;;;;;10.27;5.63;;;;;;;17.42;51.48;94595.78;5137174;27;20194;-73
2023/04/23 09:07:38;;;;;;;8.65;5.20;;;;;;;16.19;53.87;94601.69;5136436;27;20213;-74
2023/04/23 09:10:07;;;;;;;10.68;5.65;;;;;;;17.19;52.00;94582.19;5137413;27;20239;-73
2023/04/23 09:12:35;;;;;;;8.70;6.00;;;;;;;18.40;48.74;94567.13;5149911;27;20232;-72
2023/04/23 09:15:08;;;;;;;9.82;5.22;;;;;;;18.54;48.20;94580.19;5137006;27;20551;-74
2023/04/23 09:17:36;;;;;;;7.70;5.63;;;;;;;19.07;47.37;94570.41;5136036;27;20295;-75
2023/04/23 09:20:04;;;;;;;10.45;5.70;;;;;;;18.51;48.02;94586.41;5141069;27;20197;-77
2023/04/23 09:22:43;;;;;;;7.05;5.45;;;;;;;18.22;48.74;94588.88;5143806;27;20277;-76
2023/04/23 09:25:11;;;;;;;8.07;5.22;;;;;;;17.98;49.43;94583.94;5141407;27;20199;-77
2023/04/23 09:27:40;;;;;;;7.93;5.50;;;;;;;17.77;49.26;94584.50;5136931;27;20287;-76
2023/04/23 09:30:09;;;;;;;7.72;6.28;;;;;;;17.89;49.78;94592.47;5139577;27;20208;-76
2023/04/23 09:32:37;;;;;;;7.75;5.57;;;;;;;18.29;49.19;94572.53;5143704;27;20209;-77
2023/04/23 09:35:05;;;;;;;8.23;5.97;;;;;;;17.82;49.53;94577.91;5142147;27;20218;-76
2023/04/23 09:37:33;;;;;;;8.25;6.13;;;;;;;16.50;52.20;94567.06;5136519;27;20774;-78
2023/04/23 09:40:03;;;;;;;9.23;5.68;;;;;;;16.69;52.87;94581.44;5137935;27;20228;-76
2023/04/23 09:42:30;;;;;;;8.90;5.88;;;;;;;17.07;51.70;94573.41;5129615;27;20349;-77
2023/04/23 09:44:58;;;;;;;10.50;5.93;;;;;;;17.35;50.56;94568.31;5142624;27;20536;-76
2023/04/23 09:47:25;;;;;;;7.25;5.35;;;;;;;17.61;50.49;94562.78;5136322;27;20204;-77
2023/04/23 09:49:53;;;;;;;7.10;5.88;;;;;;;17.13;51.40;94556.28;5137811;27;20225;-77
2023/04/23 09:52:21;;;;;;;7.97;5.80;;;;;;;17.03;51.01;94562.41;5141764;27;20201;-78
2023/04/23 09:54:48;;;;;;;9.02;5.93;;;;;;;17.93;49.72;94557.66;5131739;27;20196;-77
2023/04/23 09:57:17;;;;;;;7.25;5.47;;;;;;;18.62;48.50;94546.16;5141768;27;20227;-77
2023/04/23 09:59:44;;;;;;;11.20;6.13;;;;;;;17.78;49.60;94558.66;5133602;27;20239;-75
2023/04/23 10:02:11;;;;;;;7.13;5.40;;;;;;;17.90;48.05;94554.91;5139358;27;20197;-76
2023/04/23 10:04:38;;;;;;;8.38;5.30;;;;;;;18.33;47.75;94551.38;5133198;27;20209;-76
2023/04/23 10:07:07;;;;;;;7.95;5.53;;;;;;;19.18;44.92;94541.03;5128909;27;20262;-77
2023/04/23 10:09:50;;;;;;;30.60;5.70;;;;;;;19.05;46.51;94520.56;5143034;27;20197;-77
2023/04/23 10:12:21;;;;;;;11.20;5.18;;;;;;;18.86;45.10;94534.56;5128920;27;20235;-77
2023/04/23 10:14:52;;;;;;;7.15;5.07;;;;;;;18.67;46.19;94515.63;5136288;27;20275;-76
2023/04/23 10:17:19;;;;;;;6.15;5.03;;;;;;;18.08;46.88;94533.91;5135649;27;20201;-76
2023/04/23 10:19:46;;;;;;;8.20;5.07;;;;;;;18.07;46.73;94524.13;5141726;27;20236;-74
2023/04/23 10:22:16;;;;;;;6.88;5.47;;;;;;;18.86;45.49;94518.09;5142391;27;20290;-75
2023/04/23 10:24:46;;;;;;;6.07;4.80;;;;;;;18.74;44.49;94499.19;5128534;27;20257;-75
2023/04/23 10:27:15;;;;;;;5.90;5.30;;;;;;;18.12;45.02;94518.28;5131089;27;20197;-74
2023/04/23 10:29:44;;;;;;;6.82;4.55;;;;;;;17.73;46.15;94518.72;5139963;27;20205;-74
2023/04/23 10:32:12;;;;;;;5.88;5.22;;;;;;;18.20;45.43;94498.00;5129000;28;20814;-75
2023/04/23 10:34:40;;;;;;;5.80;4.70;;;;;;;18.63;43.78;94499.13;5138763;27;20204;-75
2023/04/23 10:37:07;;;;;;;9.02;5.05;;;;;;;18.91;43.67;94497.75;5134948;27;20311;-74
2023/04/23 10:39:35;;;;;;;7.90;4.57;;;;;;;19.57;42.70;94491.00;5138173;27;20236;-75
2023/04/23 10:42:04;;;;;;;7.22;4.95;;;;;;;19.62;42.44;94484.34;5142075;27;20286;-73
2023/04/23 10:44:36;;;;;;;5.30;4.72;;;;;;;19.93;41.04;94483.63;5140049;27;20213;-74
2023/04/23 10:47:05;;;;;;;5.55;4.43;;;;;;;19.98;40.44;94477.72;5135548;27;20204;-76
2023/04/23 10:49:33;;;;;;;6.35;4.63;;;;;;;19.42;41.27;94470.09;5136694;27;20265;-76
2023/04/23 10:52:03;;;;;;;5.60;4.65;;;;;;;18.89;42.25;94483.59;5127980;27;20208;-74
2023/04/23 10:54:31;;;;;;;6.47;4.97;;;;;;;18.72;42.66;94485.84;5141739;27;20287;-74
2023/04/23 10:57:01;;;;;;;5.53;4.70;;;;;;;17.19;44.58;94483.63;5129005;27;20305;-73
2023/04/23 10:59:29;;;;;;;5.85;5.13;;;;;;;18.07;43.54;94488.47;5128363;27;20223;-73
2023/04/23 11:01:58;;;;;;;8.32;5.20;;;;;;;18.55;43.33;94474.75;5141352;27;20197;-76
2023/04/23 11:04:28;;;;;;;5.47;4.60;;;;;;;19.23;41.28;94464.94;5142465;27;20291;-76
2023/04/23 11:07:04;;;;;;;6.38;4.57;;;;;;;19.34;40.96;94454.78;5136461;27;20206;-73
2023/04/23 11:09:36;;;;;;;7.15;5.05;;;;;;;19.47;40.68;94462.28;5136193;27;20176;-74
2023/04/23 11:12:06;;;;;;;5.40;4.38;;;;;;;19.01;40.15;94462.09;5138245;27;20339;-74
2023/04/23 11:14:35;;;;;;;7.53;4.20;;;;;;;18.62;39.69;94452.88;5128231;28;20205;-74
2023/04/23 11:17:02;;;;;;;8.13;4.18;;;;;;;18.36;39.70;94429.94;5141326;27;20211;-72
2023/04/23 11:19:31;;;;;;;6.88;4.03;;;;;;;19.22;38.71;94455.94;5139208;27;20643;-77
2023/04/23 11:22:06;;;;;;;4.43;3.83;;;;;;;19.37;39.58;94443.03;5141871;27;20569;-74
2023/04/23 11:24:40;;;;;;;6.05;4.22;;;;;;;19.15;39.91;94437.44;5139293;27;20211;-75
2023/04/23 11:27:09;;;;;;;7.20;4.47;;;;;;;18.98;39.62;94432.69;5139151;27;20208;-75
2023/04/23 11:29:37;;;;;;;6.10;3.75;;;;;;;19.00;39.01;94435.03;5144257;27;20232;-73
2023/04/23 11:32:09;;;;;;;6.85;3.83;;;;;;;19.32;38.38;94435.94;5126874;27;20222;-78
2023/04/23 11:34:39;;;;;;;5.82;4.50;;;;;;;19.51;38.93;94432.13;5142053;27;20196;-78
2023/04/23 11:37:06;;;;;;;7.65;4.57;;;;;;;19.83;39.61;94435.69;5149324;27;20228;-80